Time;durP1;ratioP1;P1;durP2;ratioP2;P2;SDS_P1;SDS_P2;PMS_P1;PMS_P2;Temp;Humidity;BMP_temperature;BMP_pressure;BME280_temperature;BME280_humidity;BME280_pressure;Samples;Min_cycle;Max_cycle;Signal;HPM_P1;HPM_P2
2024/02/04 00:01:49;;;;;;;17.65;7.25;;;;;;;-146.27;96.94;40492.34;5055931;28;20028;-71
2024/02/04 00:04:14;;;;;;;26.80;8.23;;;;;;;-146.27;96.38;40474.47;5066211;28;20024;-70
2024/02/04 00:06:40;;;;;;;29.70;7.70;;;;;;;-146.27;96.28;40498.31;5067117;28;20057;-71
2024/02/04 00:09:06;;;;;;;29.75;7.53;;;;;;;-146.27;96.30;40472.47;5067821;28;20021;-71
2024/02/04 00:11:31;;;;;;;27.83;8.68;;;;;;;-146.27;95.83;40480.41;5062594;28;20033;-71
2024/02/04 00:13:57;;;;;;;32.17;7.85;;;;;;;-146.27;96.03;40432.72;5068656;28;20016;-71
2024/02/04 00:16:22;;;;;;;22.85;6.90;;;;;;;-146.27;96.40;40542.03;5066763;28;20655;-71
2024/02/04 00:18:48;;;;;;;22.60;7.25;;;;;;;-146.27;96.36;40488.38;5068201;28;20028;-71
2024/02/04 00:21:13;;;;;;;29.25;7.75;;;;;;;-146.27;96.68;40532.09;5067045;28;20016;-70
2024/02/04 00:23:38;;;;;;;27.25;8.07;;;;;;;-146.27;96.75;40524.16;5065964;28;20036;-71
2024/02/04 00:26:04;;;;;;;24.60;7.65;;;;;;;-146.27;96.52;40492.34;5070102;28;20100;-71
2024/02/04 00:28:29;;;;;;;27.05;8.13;;;;;;;-146.27;96.43;40468.50;5068016;28;20050;-71
2024/02/04 00:30:55;;;;;;;20.40;8.48;;;;;;;-146.27;96.01;40484.41;5068615;28;20488;-72
2024/02/04 00:33:23;;;;;;;21.30;8.25;;;;;;;-146.27;96.14;40532.09;5066619;28;20044;-70
2024/02/04 00:35:49;;;;;;;26.38;7.97;;;;;;;-146.27;96.52;40548.00;5060594;28;20043;-71
2024/02/04 00:38:14;;;;;;;24.38;8.15;;;;;;;-146.27;96.16;40466.50;5069932;28;20083;-71
2024/02/04 00:40:40;;;;;;;32.97;8.57;;;;;;;-146.27;95.57;40442.66;5063447;28;20036;-70
2024/02/04 00:43:05;;;;;;;19.73;8.18;;;;;;;-146.27;95.69;40496.31;5062067;28;20032;-71
2024/02/04 00:45:31;;;;;;;24.80;8.40;;;;;;;-146.27;95.61;40534.09;5067034;28;20028;-70
2024/02/04 00:47:57;;;;;;;20.45;8.07;;;;;;;-146.27;95.39;40508.25;5068151;28;20021;-70
2024/02/04 00:50:22;;;;;;;27.40;8.30;;;;;;;-146.27;95.41;40492.34;5061109;28;20028;-70
2024/02/04 00:52:47;;;;;;;27.67;8.05;;;;;;;-146.27;95.91;40561.91;5067570;28;20099;-70
2024/02/04 00:55:13;;;;;;;26.42;8.40;;;;;;;-146.27;95.26;40440.66;5060828;28;20611;-71
2024/02/04 00:57:38;;;;;;;25.35;8.18;;;;;;;-146.27;95.09;40536.06;5052500;28;20032;-71
2024/02/04 01:00:04;;;;;;;29.08;8.10;;;;;;;-146.27;94.79;40462.53;5063308;28;20032;-70
2024/02/04 01:02:30;;;;;;;19.50;7.35;;;;;;;-146.27;95.37;40508.25;5066739;28;20028;-71
2024/02/04 01:04:56;;;;;;;20.15;9.25;;;;;;;-146.27;96.15;40512.22;5065890;28;20378;-71
2024/02/04 01:07:21;;;;;;;25.15;8.48;;;;;;;-146.27;94.58;40444.66;5067691;28;20503;-71
2024/02/04 01:09:46;;;;;;;27.73;8.73;;;;;;;-146.27;94.94;40540.06;5065606;28;20028;-71
2024/02/04 01:12:12;;;;;;;27.88;9.27;;;;;;;-146.27;95.07;40532.09;5068561;28;20107;-70
2024/02/04 01:14:37;;;;;;;23.38;8.15;;;;;;;-146.27;95.01;40540.06;5067006;28;20074;-71
2024/02/04 01:17:03;;;;;;;25.63;8.50;;;;;;;-146.27;95.39;40528.13;5066025;28;20395;-71
2024/02/04 01:19:28;;;;;;;18.63;8.75;;;;;;;-146.27;95.69;40587.75;5067254;28;20028;-71
2024/02/04 01:21:53;;;;;;;29.15;10.10;;;;;;;-146.27;95.64;40548.00;5062399;28;20025;-71
2024/02/04 01:24:19;;;;;;;25.38;8.55;;;;;;;-146.27;95.28;40542.03;5060857;28;20037;-71
2024/02/04 01:26:44;;;;;;;29.75;8.07;;;;;;;-146.27;95.31;40544.03;5065845;28;20017;-70
2024/02/04 01:29:09;;;;;;;29.73;9.48;;;;;;;-146.27;95.31;40544.03;5065846;28;20028;-70
2024/02/04 01:31:35;;;;;;;27.83;10.02;;;;;;;-146.27;96.03;40639.44;5062946;28;20030;-71
2024/02/04 01:34:00;;;;;;;23.08;8.50;;;;;;;-146.27;95.73;40607.63;5070917;28;20101;-70
2024/02/04 01:36:26;;;;;;;35.13;10.07;;;;;;;-146.27;95.98;40621.56;5071743;28;20020;-70
2024/02/04 01:38:51;;;;;;;34.20;10.15;;;;;;;-146.27;95.31;40567.88;5070749;28;20476;-71
2024/02/04 01:41:16;;;;;;;27.05;9.00;;;;;;;-146.27;95.06;40603.66;5069593;28;20020;-72
2024/02/04 01:43:42;;;;;;;35.17;9.60;;;;;;;-146.27;94.62;40599.69;5068257;28;20392;-71
2024/02/04 01:46:08;;;;;;;24.02;9.25;;;;;;;-146.27;95.47;40619.56;5064523;28;20039;-71
2024/02/04 01:48:34;;;;;;;27.80;8.45;;;;;;;-146.27;94.44;40631.50;5064652;28;20616;-70
2024/02/04 01:51:01;;;;;;;36.97;8.95;;;;;;;-146.27;95.47;40687.16;5067124;28;20035;-70
2024/02/04 01:53:29;;;;;;;36.38;9.90;;;;;;;-146.27;94.55;40633.47;5069011;28;20457;-71
2024/02/04 01:55:55;;;;;;;24.42;8.18;;;;;;;-146.27;94.64;40687.16;5058480;28;20020;-71
2024/02/04 01:58:22;;;;;;;21.45;7.78;;;;;;;-146.27;94.40;40681.19;5071725;28;20440;-72
2024/02/04 02:00:49;;;;;;;33.47;8.82;;;;;;;-146.27;94.34;40703.06;5063815;28;20480;-70
2024/02/04 02:03:16;;;;;;;29.98;7.78;;;;;;;-146.27;93.65;40750.75;5068100;28;20496;-69
2024/02/04 02:05:42;;;;;;;31.10;8.45;;;;;;;-146.27;94.14;40709.03;5071219;28;20373;-71
2024/02/04 02:08:07;;;;;;;21.40;7.93;;;;;;;-146.27;93.54;40762.69;5072206;28;20074;-71
2024/02/04 02:10:33;;;;;;;21.15;6.95;;;;;;;-146.27;93.71;40746.78;5067066;28;20025;-72
2024/02/04 02:13:14;;;;;;;27.33;7.15;;;;;;;-146.27;93.95;40724.91;5072590;28;20034;-70
2024/02/04 02:15:45;;;;;;;21.80;8.27;;;;;;;-146.27;94.12;40726.91;5063326;28;20024;-71
2024/02/04 02:18:18;;;;;;;21.17;6.53;;;;;;;-146.27;94.60;40726.91;5062724;28;20024;-69
2024/02/04 02:21:19;;;;;;;27.98;7.22;;;;;;;-146.27;94.59;40746.78;5072569;28;20392;-71
2024/02/04 02:24:04;;;;;;;21.20;7.78;;;;;;;-146.27;94.52;40750.75;5071839;28;20036;-71
2024/02/04 02:26:37;;;;;;;21.90;6.32;;;;;;;-146.27;93.67;40790.53;5068732;28;20016;-71
2024/02/04 02:29:03;;;;;;;23.25;5.47;;;;;;;-146.27;94.18;40798.47;5068621;28;20441;-72
2024/02/04 02:31:29;;;;;;;25.30;5.57;;;;;;;-146.27;93.06;40864.06;5067859;28;20034;-71
2024/02/04 02:33:54;;;;;;;20.55;4.88;;;;;;;-146.27;93.14;40893.91;5070517;28;20124;-71
2024/02/04 02:36:22;;;;;;;27.63;5.45;;;;;;;-146.27;92.08;40858.09;5071375;28;20028;-71
2024/02/04 02:39:05;;;;;;;16.45;5.00;;;;;;;-146.27;91.80;40925.69;5071345;28;20029;-70
2024/02/04 02:41:33;;;;;;;17.75;5.28;;;;;;;-146.27;91.93;40921.72;5056647;28;20036;-70
2024/02/04 02:44:01;;;;;;;20.30;4.75;;;;;;;-146.27;91.31;40981.38;5068766;28;20489;-69
2024/02/04 02:46:27;;;;;;;18.02;4.82;;;;;;;-146.27;91.34;40973.41;5069273;28;20032;-71
2024/02/04 02:48:53;;;;;;;18.27;5.20;;;;;;;-146.27;92.66;40965.47;5069467;28;20044;-72
2024/02/04 02:51:18;;;;;;;17.30;5.47;;;;;;;-146.27;92.39;40883.94;5071271;28;20029;-70
2024/02/04 02:53:44;;;;;;;20.08;6.53;;;;;;;-146.27;92.19;40941.59;5068797;28;20045;-71
2024/02/04 02:56:09;;;;;;;21.83;6.00;;;;;;;-146.27;92.25;40870.03;5068890;28;20107;-72
2024/02/04 02:58:34;;;;;;;15.27;5.70;;;;;;;-146.27;92.39;40931.66;5067401;28;20031;-70
2024/02/04 03:01:00;;;;;;;24.17;6.90;;;;;;;-146.27;92.58;40860.09;5069130;28;20024;-71
2024/02/04 03:03:25;;;;;;;26.85;6.28;;;;;;;-146.27;92.76;40901.84;5068470;28;20120;-70
2024/02/04 03:05:51;;;;;;;22.48;6.47;;;;;;;-146.27;93.44;40897.88;5071139;28;20043;-71
2024/02/04 03:08:17;;;;;;;19.83;6.13;;;;;;;-146.27;92.69;40897.88;5070234;28;20380;-71
2024/02/04 03:10:42;;;;;;;21.08;6.47;;;;;;;-146.27;92.27;40893.91;5069716;28;20066;-71
2024/02/04 03:13:08;;;;;;;21.77;6.00;;;;;;;-146.27;92.61;40903.84;5071027;28;20468;-70
2024/02/04 03:15:33;;;;;;;25.65;7.05;;;;;;;-146.27;92.43;40933.66;5064853;28;20067;-71
2024/02/04 03:17:58;;;;;;;17.23;5.95;;;;;;;-146.27;92.74;40945.59;5069938;28;20485;-70
2024/02/04 03:20:24;;;;;;;22.83;6.85;;;;;;;-146.27;92.91;40931.66;5061497;28;20017;-71
2024/02/04 03:22:49;;;;;;;23.95;6.55;;;;;;;-146.27;93.13;40862.09;5067131;28;20071;-71
2024/02/04 03:25:14;;;;;;;18.88;6.30;;;;;;;-146.27;92.84;40893.91;5064073;28;20051;-70
2024/02/04 03:27:40;;;;;;;29.23;7.63;;;;;;;-146.27;92.63;40850.16;5068362;28;20416;-71
2024/02/04 03:30:06;;;;;;;17.13;6.82;;;;;;;-146.27;93.24;40850.16;5069073;28;20103;-70
2024/02/04 03:32:33;;;;;;;18.83;6.25;;;;;;;-146.27;92.95;40868.06;5068383;28;20052;-71
2024/02/04 03:35:00;;;;;;;15.60;6.57;;;;;;;-146.27;92.38;40885.94;5064364;28;20056;-71
2024/02/04 03:37:25;;;;;;;27.70;7.30;;;;;;;-146.27;93.32;40901.84;5070710;28;20056;-71
2024/02/04 03:39:51;;;;;;;20.08;6.68;;;;;;;-146.27;94.46;40830.28;5066666;28;20369;-70
2024/02/04 03:42:18;;;;;;;22.27;6.88;;;;;;;-146.27;93.92;40826.31;5069361;28;20500;-71
2024/02/04 03:44:43;;;;;;;23.90;8.07;;;;;;;-146.27;93.54;40822.31;5069251;28;20028;-70
2024/02/04 03:47:09;;;;;;;30.48;7.15;;;;;;;-146.27;93.82;40838.22;5068334;28;20119;-72
2024/02/04 03:49:34;;;;;;;32.50;9.00;;;;;;;-146.27;94.10;40838.22;5065544;28;20074;-69
2024/02/04 03:52:00;;;;;;;28.50;8.43;;;;;;;-146.27;95.23;40876.00;5069279;28;20029;-69
2024/02/04 03:54:25;;;;;;;19.58;7.53;;;;;;;-146.27;95.31;40814.38;5066220;28;20019;-71
2024/02/04 03:56:50;;;;;;;24.27;8.25;;;;;;;-146.27;94.98;40788.53;5068636;28;20141;-70
2024/02/04 03:59:16;;;;;;;28.67;8.13;;;;;;;-146.27;94.27;40764.69;5067995;28;20052;-71
2024/02/04 04:01:48;;;;;;;21.55;7.45;;;;;;;-146.27;94.11;40798.47;5064834;28;20439;-72
2024/02/04 04:04:14;;;;;;;19.17;6.40;;;;;;;-146.27;93.90;40758.72;5049652;28;20112;-71
2024/02/04 04:06:39;;;;;;;18.45;7.07;;;;;;;-146.27;94.12;40790.53;5068025;28;20115;-71
2024/02/04 04:09:05;;;;;;;25.02;8.45;;;;;;;-146.27;94.03;40840.22;5067666;28;20058;-72
2024/02/04 04:11:31;;;;;;;21.73;8.15;;;;;;;-146.27;94.21;40822.31;5063880;28;20610;-71
2024/02/04 04:13:56;;;;;;;25.02;7.28;;;;;;;-146.27;94.03;40810.41;5068638;28;20064;-71
2024/02/04 04:16:22;;;;;;;24.30;7.30;;;;;;;-146.27;94.12;40794.50;5066281;28;20044;-71
2024/02/04 04:18:48;;;;;;;22.58;7.68;;;;;;;-146.27;93.61;40834.25;5067744;28;20029;-70
2024/02/04 04:21:13;;;;;;;31.70;8.15;;;;;;;-146.27;93.83;40806.44;5068098;28;20031;-70
2024/02/04 04:23:39;;;;;;;30.80;10.20;;;;;;;-146.27;94.47;40810.41;5066775;28;20029;-71
2024/02/04 04:26:05;;;;;;;22.48;7.18;;;;;;;-146.27;94.65;40786.53;5066833;28;20130;-70
2024/02/04 04:28:31;;;;;;;16.88;6.38;;;;;;;-146.27;95.42;40762.69;5069107;28;20027;-70
2024/02/04 04:30:56;;;;;;;29.30;7.70;;;;;;;-146.27;94.91;40732.88;5066054;28;20024;-70
2024/02/04 04:33:22;;;;;;;30.23;7.32;;;;;;;-146.27;95.04;40796.47;5062957;28;20093;-70
2024/02/04 04:35:47;;;;;;;26.10;7.38;;;;;;;-146.27;94.78;40738.84;5062178;28;20151;-71
2024/02/04 04:38:13;;;;;;;25.90;7.10;;;;;;;-146.27;95.13;40778.59;5067995;28;20024;-70
2024/02/04 04:40:40;;;;;;;19.05;7.80;;;;;;;-146.27;94.56;40720.94;5068437;28;20074;-70
2024/02/04 04:43:06;;;;;;;24.58;7.63;;;;;;;-146.27;94.59;40774.63;5068506;28;20036;-70
2024/02/04 04:45:31;;;;;;;21.55;7.88;;;;;;;-146.27;94.83;40818.34;5061394;28;20056;-71
2024/02/04 04:47:57;;;;;;;31.58;9.50;;;;;;;-146.27;94.75;40770.63;5050829;28;20020;-71
2024/02/04 04:50:23;;;;;;;39.08;11.98;;;;;;;-146.27;94.70;40774.63;5065876;28;20028;-71
2024/02/04 04:52:48;;;;;;;23.45;9.40;;;;;;;-146.27;95.24;40746.78;5065972;28;20028;-71
2024/02/04 04:55:13;;;;;;;41.83;11.68;;;;;;;-146.27;96.01;40754.75;5064742;28;20024;-71
2024/02/04 04:57:39;;;;;;;28.63;10.35;;;;;;;-146.27;96.73;40778.59;5068211;28;20027;-71
2024/02/04 05:00:09;;;;;;;38.33;11.18;;;;;;;-146.27;96.73;40788.53;5063954;28;20086;-70
2024/02/04 05:02:35;;;;;;;41.05;11.80;;;;;;;-146.27;96.20;40764.69;5067406;28;20468;-70
2024/02/04 05:05:00;;;;;;;36.65;11.32;;;;;;;-146.27;96.02;40762.69;5067373;28;20027;-70
2024/02/04 05:07:26;;;;;;;42.75;11.65;;;;;;;-146.27;96.73;40720.94;5066300;28;20044;-71
2024/02/04 05:09:51;;;;;;;40.80;12.52;;;;;;;-146.27;97.05;40750.75;5069106;28;20369;-71
2024/02/04 05:12:17;;;;;;;32.13;11.43;;;;;;;-146.27;96.65;40734.84;5068131;28;20067;-70
2024/02/04 05:14:42;;;;;;;32.83;11.18;;;;;;;-146.27;96.92;40738.84;5067833;28;20040;-71
2024/02/04 05:17:09;;;;;;;44.08;11.50;;;;;;;-146.27;96.21;40720.94;5068951;28;20029;-71
2024/02/04 05:19:35;;;;;;;38.75;10.75;;;;;;;-146.27;96.20;40711.00;5066463;28;20115;-70
2024/02/04 05:22:00;;;;;;;38.35;11.75;;;;;;;-146.27;96.14;40707.03;5067792;28;20115;-71
2024/02/04 05:24:25;;;;;;;41.88;10.95;;;;;;;-146.27;95.49;40722.94;5065481;28;20029;-71
2024/02/04 05:26:51;;;;;;;46.83;10.73;;;;;;;-146.27;96.44;40693.13;5068649;28;20032;-71
2024/02/04 05:29:16;;;;;;;32.97;10.63;;;;;;;-146.27;95.74;40685.16;5065910;28;20036;-71
2024/02/04 05:31:43;;;;;;;30.35;10.10;;;;;;;-146.27;95.79;40689.13;5061855;28;20103;-71
2024/02/04 05:34:08;;;;;;;35.88;12.00;;;;;;;-146.27;95.81;40693.13;5061889;28;20043;-70
2024/02/04 05:36:34;;;;;;;28.35;9.48;;;;;;;-146.27;96.84;40734.84;5064526;28;20484;-71
2024/02/04 05:39:19;;;;;;;36.33;11.00;;;;;;;-146.27;97.44;40734.84;5060911;28;20439;-72
2024/02/04 05:41:45;;;;;;;41.42;10.02;;;;;;;-146.27;97.72;40679.19;5061945;28;20040;-71
2024/02/04 05:44:10;;;;;;;29.42;9.68;;;;;;;-146.27;96.95;40718.97;5066766;28;20037;-72
2024/02/04 05:46:36;;;;;;;36.47;10.13;;;;;;;-146.27;96.89;40711.00;5065638;28;20017;-71
2024/02/04 05:49:02;;;;;;;26.23;9.32;;;;;;;-146.27;97.51;40641.44;5066788;28;20460;-70
2024/02/04 05:51:28;;;;;;;36.97;9.90;;;;;;;-146.27;97.32;40689.13;5057374;28;20071;-69
2024/02/04 05:53:54;;;;;;;26.38;8.32;;;;;;;-146.27;97.00;40649.38;5057284;28;20031;-70
2024/02/04 05:56:20;;;;;;;35.65;8.85;;;;;;;-146.27;97.43;40669.25;5057225;28;20044;-70
2024/02/04 05:58:46;;;;;;;33.00;8.25;;;;;;;-146.27;97.12;40615.59;5059927;28;20024;-71
2024/02/04 06:01:11;;;;;;;28.15;8.13;;;;;;;-146.27;96.61;40651.38;5055261;28;20086;-70
2024/02/04 06:03:37;;;;;;;23.08;7.35;;;;;;;-146.27;96.44;40631.50;5061198;28;20032;-71
2024/02/04 06:06:02;;;;;;;37.20;7.85;;;;;;;-146.27;96.53;40714.97;5066986;28;20032;-72
2024/02/04 06:08:27;;;;;;;27.52;7.15;;;;;;;-146.27;96.91;40679.19;5057639;28;20020;-72
2024/02/04 06:10:53;;;;;;;22.77;6.28;;;;;;;-146.27;96.79;40645.41;5063717;28;20032;-71
2024/02/04 06:13:18;;;;;;;26.08;7.28;;;;;;;-146.27;96.35;40663.28;5066504;28;20564;-71
2024/02/04 06:15:43;;;;;;;18.95;6.22;;;;;;;-146.27;97.38;40697.09;5065049;28;20399;-71
2024/02/04 06:18:09;;;;;;;25.05;6.60;;;;;;;-146.27;96.56;40679.19;5063044;28;20079;-71
2024/02/04 06:20:34;;;;;;;19.83;6.20;;;;;;;-146.27;95.43;40621.56;5066887;28;20456;-70
2024/02/04 06:23:00;;;;;;;16.45;5.40;;;;;;;-146.27;95.47;40607.63;5071048;28;20033;-70
2024/02/04 06:25:26;;;;;;;21.30;6.03;;;;;;;-146.27;95.10;40679.19;5065705;28;20029;-70
2024/02/04 06:27:51;;;;;;;16.95;6.22;;;;;;;-146.27;96.17;40621.56;5064547;28;20036;-70
2024/02/04 06:30:17;;;;;;;17.33;5.75;;;;;;;-146.27;95.14;40603.66;5063497;28;20087;-70
2024/02/04 06:32:42;;;;;;;24.73;7.13;;;;;;;-146.27;96.00;40633.47;5062962;28;20139;-71
2024/02/04 06:35:08;;;;;;;18.35;5.80;;;;;;;-146.27;95.37;40561.91;5063051;28;20472;-70
2024/02/04 06:37:33;;;;;;;16.60;5.40;;;;;;;-146.27;95.20;40679.19;5071565;28;20028;-70
2024/02/04 06:39:58;;;;;;;20.15;6.18;;;;;;;-146.27;95.29;40605.66;5065707;28;20111;-71
2024/02/04 06:42:24;;;;;;;14.18;5.88;;;;;;;-146.27;94.78;40577.81;5061532;28;20036;-71
2024/02/04 06:44:49;;;;;;;12.60;5.05;;;;;;;-146.27;95.27;40675.22;5068085;28;20039;-72
2024/02/04 06:47:15;;;;;;;15.40;5.38;;;;;;;-146.27;95.66;40599.69;5067628;28;20349;-70
2024/02/04 06:49:44;;;;;;;16.35;5.25;;;;;;;-146.27;95.57;40571.84;5070861;28;20027;-71
2024/02/04 06:52:09;;;;;;;13.38;5.00;;;;;;;-146.27;96.10;40553.97;5071444;28;20078;-70
2024/02/04 06:54:34;;;;;;;13.50;4.95;;;;;;;-146.27;94.81;40599.69;5074458;28;20484;-71
2024/02/04 06:57:00;;;;;;;14.68;3.88;;;;;;;-146.27;95.26;40607.63;5070916;28;20664;-71
2024/02/04 06:59:25;;;;;;;12.05;4.47;;;;;;;-146.27;94.01;40629.50;5070974;28;20544;-71
2024/02/04 07:01:53;;;;;;;11.65;4.60;;;;;;;-146.27;94.11;40645.41;5071100;28;20043;-72
2024/02/04 07:04:18;;;;;;;7.68;3.67;;;;;;;-146.27;93.23;40653.34;5061971;28;21178;-69
2024/02/04 07:06:44;;;;;;;13.63;4.47;;;;;;;-146.27;93.61;40681.19;5059621;28;20040;-69
2024/02/04 07:09:09;;;;;;;8.43;3.45;;;;;;;-146.27;93.57;40716.97;5067392;28;20024;-68
2024/02/04 07:11:35;;;;;;;14.48;4.38;;;;;;;-146.27;93.52;40748.78;5062926;28;20107;-68
2024/02/04 07:14:00;;;;;;;9.88;4.10;;;;;;;-146.27;93.67;40734.84;5069941;28;20024;-68
2024/02/04 07:16:26;;;;;;;11.45;3.65;;;;;;;-146.27;93.63;40756.72;5067486;28;20016;-75
2024/02/04 07:18:51;;;;;;;10.90;3.35;;;;;;;-146.27;94.13;40734.84;5067785;28;20032;-70
2024/02/04 07:21:16;;;;;;;8.05;3.00;;;;;;;-146.27;95.13;40714.97;5062547;28;20073;-70
2024/02/04 07:23:42;;;;;;;10.00;3.33;;;;;;;-146.27;95.20;40701.06;5066879;28;20115;-69
2024/02/04 07:26:08;;;;;;;15.45;4.40;;;;;;;-146.27;95.54;40659.31;5071885;28;20598;-69
2024/02/04 07:28:34;;;;;;;10.80;4.55;;;;;;;-146.27;94.82;40587.75;5068158;28;20384;-68
2024/02/04 07:30:59;;;;;;;16.48;5.55;;;;;;;-146.27;94.67;40595.72;5068154;28;20028;-69
2024/02/04 07:33:24;;;;;;;19.35;5.88;;;;;;;-146.27;94.96;40677.22;5065654;28;20070;-74
2024/02/04 07:35:53;;;;;;;16.38;5.47;;;;;;;-146.27;96.40;40583.78;5067390;28;20032;-71
2024/02/04 07:38:18;;;;;;;12.63;5.13;;;;;;;-146.27;95.99;40587.75;5067978;28;20024;-70
2024/02/04 07:40:43;;;;;;;21.63;4.93;;;;;;;-146.27;97.48;40563.91;5058316;28;20039;-72
2024/02/04 07:43:09;;;;;;;20.90;5.15;;;;;;;-146.27;97.25;40555.97;5055794;28;20048;-69
2024/02/04 07:45:34;;;;;;;15.27;5.50;;;;;;;-146.27;97.10;40577.81;5059691;28;20024;-71
2024/02/04 07:48:00;;;;;;;14.18;4.38;;;;;;;-146.27;96.48;40559.94;5070299;28;20344;-70
2024/02/04 07:50:25;;;;;;;20.30;4.35;;;;;;;-146.27;96.49;40532.09;5060684;28;20057;-70
2024/02/04 07:52:51;;;;;;;16.10;3.80;;;;;;;-146.27;96.15;40540.06;5067269;28;20037;-69
2024/02/04 07:55:17;;;;;;;14.05;4.85;;;;;;;-146.27;96.14;40542.03;5064863;28;20027;-70
2024/02/04 07:57:42;;;;;;;10.23;4.15;;;;;;;-146.27;96.28;40619.56;5061626;28;20025;-72
2024/02/04 08:00:10;;;;;;;21.30;4.22;;;;;;;-146.27;95.52;40544.03;5058956;28;20237;-71
2024/02/04 08:02:36;;;;;;;14.63;4.70;;;;;;;-146.27;95.67;40569.88;5062000;28;20032;-71
2024/02/04 08:05:01;;;;;;;12.73;3.45;;;;;;;-146.27;96.03;40577.81;5061736;28;20036;-71
2024/02/04 08:07:26;;;;;;;8.70;3.60;;;;;;;-146.27;95.26;40631.50;5058544;28;20492;-70
2024/02/04 08:09:52;;;;;;;19.95;3.80;;;;;;;-146.27;95.39;40663.28;5060811;28;20020;-71
2024/02/04 08:12:17;;;;;;;10.30;2.85;;;;;;;-146.27;94.97;40691.13;5062414;28;20035;-71
2024/02/04 08:14:43;;;;;;;12.57;3.30;;;;;;;-146.27;94.16;40703.06;5074478;28;20024;-71
2024/02/04 08:17:08;;;;;;;6.88;2.42;;;;;;;-146.27;94.33;40758.72;5069680;28;20029;-70
2024/02/04 08:19:34;;;;;;;16.33;3.17;;;;;;;-146.27;94.37;40718.97;5070189;28;20024;-71
2024/02/04 08:22:00;;;;;;;8.90;2.83;;;;;;;-146.27;94.56;40776.59;5075875;28;20028;-71
2024/02/04 08:24:26;;;;;;;10.00;2.00;;;;;;;-146.27;94.94;40822.31;5068633;28;20031;-71
2024/02/04 08:26:51;;;;;;;10.98;2.22;;;;;;;-146.27;94.52;40834.25;5069186;28;20366;-69
2024/02/04 08:29:16;;;;;;;15.10;2.53;;;;;;;-146.27;94.19;40889.91;5060466;28;20025;-70
2024/02/04 08:31:42;;;;;;;5.10;2.33;;;;;;;-146.27;94.08;40870.03;5058130;28;20236;-69
2024/02/04 08:34:07;;;;;;;7.20;1.95;;;;;;;-146.27;95.13;40987.31;5066697;28;20016;-69
2024/02/04 08:36:32;;;;;;;10.05;2.08;;;;;;;-146.27;93.95;40921.72;5067357;28;20059;-69
2024/02/04 08:38:58;;;;;;;9.18;2.28;;;;;;;-146.27;93.54;40977.38;5063620;28;20036;-69
2024/02/04 08:41:24;;;;;;;7.78;1.75;;;;;;;-146.27;93.15;40971.44;5067777;28;20025;-71
2024/02/04 08:43:49;;;;;;;5.30;1.75;;;;;;;-146.27;93.91;40997.28;5065129;28;20081;-70
2024/02/04 08:46:15;;;;;;;7.07;1.88;;;;;;;-146.27;93.49;41072.81;5064573;28;20017;-70
2024/02/04 08:48:42;;;;;;;6.75;1.50;;;;;;;-146.27;93.54;41050.94;5053805;28;20103;-69
2024/02/04 08:51:16;;;;;;;9.55;1.85;;;;;;;-146.27;92.89;41068.84;5062763;28;20057;-70
2024/02/04 08:53:41;;;;;;;;;;;;;;;-146.27;93.67;41152.34;5059515;28;20105;-70
2024/02/04 08:56:07;;;;;;;17.88;2.13;;;;;;;-146.27;93.38;41128.47;5064506;28;20003;-69
2024/02/04 08:58:32;;;;;;;5.88;1.33;;;;;;;-146.27;93.36;41194.09;5056288;28;20020;-69
2024/02/04 09:00:58;;;;;;;7.03;1.52;;;;;;;-146.27;93.19;41180.16;5066250;28;20036;-70
2024/02/04 09:03:23;;;;;;;8.57;1.35;;;;;;;-146.27;92.60;41215.94;5064342;28;20020;-70
2024/02/04 09:05:49;;;;;;;6.78;1.75;;;;;;;-146.27;92.97;41267.66;5067710;28;20063;-70
2024/02/04 09:08:14;;;;;;;5.90;1.40;;;;;;;-146.27;92.50;41331.25;5062461;28;20108;-69
2024/02/04 09:10:40;;;;;;;4.00;1.00;;;;;;;-146.27;91.69;41373.03;5059015;28;20016;-70
2024/02/04 09:13:05;;;;;;;3.88;1.80;;;;;;;-146.27;90.90;41406.81;5060503;28;20036;-69
2024/02/04 09:15:30;;;;;;;4.53;0.93;;;;;;;-146.27;90.63;41426.69;5068869;28;20028;-69
2024/02/04 09:17:56;;;;;;;4.10;1.20;;;;;;;-146.27;91.92;41561.91;5064130;28;20111;-70
2024/02/04 09:20:22;;;;;;;4.75;1.48;;;;;;;-146.27;90.92;41524.13;5066332;28;20060;-69
2024/02/04 09:22:47;;;;;;;5.25;1.40;;;;;;;-146.27;91.39;41542.03;5069155;28;20496;-69
2024/02/04 09:25:13;;;;;;;8.15;1.15;;;;;;;-146.27;91.53;41538.03;5057165;28;20031;-69
2024/02/04 09:27:38;;;;;;;6.30;1.38;;;;;;;-146.27;90.90;41551.97;5064922;28;20028;-70
2024/02/04 09:30:05;;;;;;;4.35;1.05;;;;;;;-146.27;91.23;41637.47;5068651;28;20040;-69
2024/02/04 09:32:31;;;;;;;1.85;0.80;;;;;;;-146.27;90.22;41709.03;5069772;28;20037;-71
2024/02/04 09:34:56;;;;;;;3.47;0.93;;;;;;;-146.27;90.02;41736.88;5069585;28;20028;-69
2024/02/04 09:37:22;;;;;;;12.00;1.13;;;;;;;-146.27;89.57;41728.91;5066371;28;20032;-70
2024/02/04 09:39:47;;;;;;;7.72;1.88;;;;;;;-146.27;89.09;41784.59;5072007;28;20122;-68
2024/02/04 09:42:19;;;;;;;4.22;0.95;;;;;;;-146.27;90.26;41800.50;5073660;28;20033;-69
2024/02/04 09:44:45;;;;;;;2.47;1.00;;;;;;;-146.27;90.53;41772.66;5071876;28;20103;-71
2024/02/04 09:47:13;;;;;;;3.28;0.80;;;;;;;-146.27;90.97;41685.19;5069689;28;20024;-69
2024/02/04 09:49:38;;;;;;;2.78;0.90;;;;;;;-146.27;91.98;41577.81;5064017;28;20055;-71
2024/02/04 09:52:08;;;;;;;4.55;1.20;;;;;;;-146.27;92.50;41530.09;5068421;28;20029;-71
2024/02/04 09:54:37;;;;;;;9.15;1.60;;;;;;;-146.27;93.80;41466.47;5064573;28;20033;-71
2024/02/04 09:57:03;;;;;;;6.20;1.60;;;;;;;-146.27;94.99;41470.44;5069279;28;20035;-72
2024/02/04 09:59:28;;;;;;;6.07;1.80;;;;;;;-146.27;96.14;41371.03;5072367;28;20024;-69
2024/02/04 10:01:55;;;;;;;9.27;2.67;;;;;;;-146.27;96.04;41357.13;5070282;28;20024;-70
2024/02/04 10:04:21;;;;;;;13.52;2.42;;;;;;;-146.27;96.44;41369.03;5067320;28;20028;-71
2024/02/04 10:06:46;;;;;;;8.18;2.40;;;;;;;-146.27;97.38;41367.06;5064634;28;20078;-70
2024/02/04 10:09:12;;;;;;;5.03;2.35;;;;;;;-146.27;97.03;41331.25;5061197;28;20446;-71
2024/02/04 10:11:37;;;;;;;14.02;2.63;;;;;;;-146.27;97.27;41347.16;5069320;28;20033;-71
2024/02/04 10:14:02;;;;;;;3.70;2.10;;;;;;;-146.27;98.26;41365.06;5062138;28;20108;-71
2024/02/04 10:16:28;;;;;;;13.50;2.90;;;;;;;-146.27;97.84;41311.38;5067073;28;20107;-71
2024/02/04 10:18:56;;;;;;;11.15;2.28;;;;;;;-146.27;98.29;41333.25;5069168;28;20500;-71
2024/02/04 10:21:23;;;;;;;11.18;2.40;;;;;;;-146.27;97.67;41301.44;5071144;28;20028;-71
2024/02/04 10:23:50;;;;;;;11.18;2.17;;;;;;;-146.27;98.10;41297.47;5069580;28;20032;-71
2024/02/04 10:26:16;;;;;;;8.57;2.15;;;;;;;-146.27;97.32;41186.13;5069352;28;20023;-71
2024/02/04 10:28:42;;;;;;;12.23;1.83;;;;;;;-146.27;98.51;41287.53;5069150;28;20043;-70
2024/02/04 10:31:10;;;;;;;12.85;2.72;;;;;;;-146.27;98.07;41235.84;5071544;28;20064;-70
2024/02/04 10:33:39;;;;;;;8.85;2.33;;;;;;;-146.27;97.81;41275.59;5071242;28;20044;-70
2024/02/04 10:36:05;;;;;;;14.75;1.70;;;;;;;-146.27;96.96;41335.25;5070261;28;20108;-71
2024/02/04 10:38:32;;;;;;;11.65;1.55;;;;;;;-146.27;96.89;41337.22;5071441;28;20024;-69
2024/02/04 10:41:03;;;;;;;12.13;3.65;;;;;;;-146.27;97.05;41392.91;5071388;28;20021;-70
2024/02/04 10:43:34;;;;;;;5.43;1.75;;;;;;;-146.27;96.21;41315.38;5072566;28;20029;-70
2024/02/04 10:46:07;;;;;;;7.45;1.38;;;;;;;-146.27;96.56;41396.88;5069883;28;20061;-70
2024/02/04 10:48:41;;;;;;;;;;;;;;;-146.27;95.91;41315.38;5072848;28;20074;-70
2024/02/04 10:51:12;;;;;;;8.63;2.75;;;;;;;-146.27;95.74;41422.72;5070786;28;19917;-71
2024/02/04 10:53:38;;;;;;;3.83;1.40;;;;;;;-146.27;95.24;41426.69;5066948;28;20020;-71
2024/02/04 10:56:06;;;;;;;11.27;1.42;;;;;;;-146.27;94.59;41410.78;5067868;28;20101;-70
2024/02/04 10:58:33;;;;;;;8.32;1.92;;;;;;;-146.27;95.23;41458.50;5071256;28;20127;-72
2024/02/04 11:00:59;;;;;;;5.15;1.40;;;;;;;-146.27;95.47;41490.31;5066943;28;20024;-70
2024/02/04 11:03:27;;;;;;;11.30;1.73;;;;;;;-146.27;94.68;41450.56;5067484;28;20036;-70
2024/02/04 11:05:53;;;;;;;12.45;2.13;;;;;;;-146.27;94.06;41448.56;5065497;28;20053;-70